Airfield :
LOGIN :

Register | Disclaimer

   EN    FR    IT 

 










Legend :    VFR   Marginal VFR   IFR   Intensive IFR   Very Intensive IFR
Visi :
Ceiling :
>= 8 km
>= 3000ft
5 to 8 km
1000 to 3000 ft
1500m to 5 km
500 to 1000 ft
800 to 1500m
200 to 500 ft
< 800m
< 200 ft
Symbols :   Thunderstorms  Fog  Heavy snow  Heavy precipitations  Wind > 20 kt
SIGMETs :     Misc.  Thunderstorms  Icing  Turbulence  Mountain Waves  Volcanic Ashes






- Airport Elevation : 885 ft
- IATA code : BAS


LFSB - Bale-Mulhouse

CURRENT METAR :
  • 180400Z AUTO 16002KT 3800 BR VV/// M03/M04 Q1036 TEMPO 0400 FZFG

EXPIRED METARs :
  • 180330Z AUTO 21004KT 5000 BR FEW049 M02/M02 Q1036 TEMPO 0400 FZFG VV///
  • 180300Z AUTO 28002KT 3600 R33/1000D BR FEW007 M02/M02 Q1036 TEMPO 0400 FZFG VV///
  • 180230Z AUTO VRB02KT 4000 R33/1300U BR FEW007 M02/M03 Q1036 TEMPO 0400 FZFG VV///
  • 180200Z AUTO 00000KT 5000 BR SCT052 M02/M02 Q1036 TEMPO 0400 FZFG VV///
  • 180130Z AUTO VRB02KT 5000 BR BKN050 M02/M02 Q1036 TEMPO 0400 FZFG VV///

TAF TAF LFSB
Valid from the 18 at 00:00 until the 19 at 00:00 UTC


172300Z 1800/1824 VRB03KT 6000 BKN045
TEMPO 1800/1809 2000 MIFG BKN002
PROB40
TEMPO 1800/1808 0400 FZFG VV///
FM180900 35006KT 6000 BKN006
BECMG 1812/1814 BKN013
PROB40 1815/1818 FEW015
BECMG 1818/1820 4000 BR
PROB40
TEMPO 1820/1824 0400 FZFG VV///
Met : +33 3 89 90 31 11



MET'MAP, your aeronautical weather chart ! - Copyright ORBIFLY December 2007 - Disclaimer

ORBIFLY MET'MAP TEAM :

Programming & Development : Alexandra Zaïnal
Concept & original design : Baudouin d'Aumeries
Assistance for programming : Marc-Olivier Méhu
Technical & hardware support : Manuel Goepfert

Contact : metmap@orbifly.com




SOURCES & CREDITS :

   NOAA